KPGD/PGD METAR and TAF weather

Enter ICAO airport designator
Station Type Date Time Source
KPGD METAR 2019/12/08 23:53 UTC NOAA

KPGD 082353Z 11004KT 10SM BKN050 21/17 A3013 RMK AO2 SLP202 T02060167 10278 20206 53009


Station Type Date Time Source
KPGD Decoded METAR 2019/12/08 23:53 UTC NOAA

PUNTA GORDA CHARLOTTE COUNTY, FL, United States (KPGD) 26-55N 82-00W 7M
Dec 08, 2019 - 06:53 PM EST / 2019.12.08 2353 UTC
Wind: from the ESE (110 degrees) at 5 MPH (4 KT):0
Visibility: 10 mile(s):0
Sky conditions: mostly cloudy
Temperature: 69.1 F (20.6 C)
Dew Point: 62.1 F (16.7 C)
Relative Humidity: 78%
Pressure (altimeter): 30.13 in. Hg (1020 hPa)
Pressure tendency: 0.03 inches (0.9 hPa) higher than three hours ago
ob: KPGD 082353Z 11004KT 10SM BKN050 21/17 A3013 RMK AO2 SLP202 T02060167 10278 20206 53009
cycle: 0

Station Type Date Time Source
KPGD TAF 2019/12/08 18:24 UTC NOAA

TAF KPGD 081721Z 0818/0918 12007KT P6SM SCT040 SCT250
FM090100 10004KT P6SM SCT040
FM091500 15008KT P6SM SCT025 SCT250

Example: see airport list